Monte — V2FS2 — position and weather

sailwx.info

Track history (hours):
 
Tides and Currents Weather Stations Pressure Air Temp Water Temp Dewpoint Dewpoint Depression Visibility Wind Speed Wind Dir Waves Ship Positions

Monte

Last reported at 2015-Mar-21 20:33 UTC. Time now 2015-Mar-27 10:18 UTC.
Position N 39°17' W 009°49'.

Length 104 m; draft 4 m.

Type: Cargo ship. MMSI: 305777000.

Date/timePositionNaut miles runAvg speedWind from/ knotsBaromVisibWave heightAir tempDewpointWater temp
2015-Mar-21 20:33N 39°17' W 009°49'9 8.5
2015-Mar-21 19:28N 39°08' W 009°49'8 8.0
2015-Mar-21 18:28N 38°60' W 009°49'2 0.6
2015-Mar-21 14:26N 38°58' W 009°51'6 5.8
2015-Mar-21 13:25N 38°52' W 009°51'7 8.2
2015-Mar-21 12:33N 38°45' W 009°51'8 7.5
2015-Mar-21 11:27N 38°37' W 009°49'7 7.9
2015-Mar-21 10:33N 38°30' W 009°47'8 8.0
2015-Mar-21 09:32N 38°22' W 009°45'8 8.2
2015-Mar-21 08:32N 38°14' W 009°43'9 8.5
2015-Mar-21 07:30N 38°05' W 009°40'8 9.0
2015-Mar-21 06:33N 37°57' W 009°37'9 9.0
2015-Mar-21 05:33N 37°48' W 009°35'9 9.4
2015-Mar-21 04:33N 37°39' W 009°32'69 8.5
2015-Mar-20 20:31N 36°40' W 008°49'9 9.7
2015-Mar-20 19:33N 36°37' W 008°38'151 9.4
2015-Mar-20 03:32N 35°58' W 005°37'7 7.5
2015-Mar-20 02:33N 36°00' W 005°28'8 7.7
2015-Mar-20 01:33N 36°07' W 005°24'4 2.8
2015-Mar-20 00:10N 36°11' W 005°25'0 0.0
2015-Mar-19 23:04N 36°11' W 005°25'0 0.0
2015-Mar-19 22:22N 36°11' W 005°25'0 0.0
2015-Mar-19 20:22N 36°11' W 005°25'0 0.0
2015-Mar-19 19:10N 36°11' W 005°25'0 0.0
2015-Mar-19 16:27N 36°11' W 005°25'0 0.0
2015-Mar-19 08:09N 36°11' W 005°25'0 0.0
2015-Mar-19 07:33N 36°11' W 005°25'0 0.0
2015-Mar-19 06:33N 36°11' W 005°25'0 0.0
2015-Mar-19 04:09N 36°11' W 005°25'0 0.0
2015-Mar-19 02:30N 36°11' W 005°25'0 0.0
2015-Mar-19 01:33N 36°11' W 005°25'0 0.0
2015-Mar-19 00:21N 36°11' W 005°25'0 0.0
2015-Mar-18 23:33N 36°11' W 005°25'0 0.0
2015-Mar-18 20:27N 36°11' W 005°25'1 0.0
2015-Mar-17 00:26N 36°10' W 005°26'0 0.1
2015-Mar-16 22:32N 36°10' W 005°25'0 0.0
2015-Mar-16 20:08N 36°10' W 005°25'0 0.0
2015-Mar-16 19:30N 36°10' W 005°25'0 0.0
2015-Mar-16 18:33N 36°10' W 005°25'1 1.3
2015-Mar-16 17:32N 36°09' W 005°25'5 5.1
2015-Mar-16 16:32N 36°06' W 005°20'9 8.0
2015-Mar-16 15:28N 36°10' W 005°10'0 0.4
2015-Mar-16 14:32N 36°09' W 005°11'1 0.6
2015-Mar-16 13:33N 36°09' W 005°11'1 0.7
2015-Mar-16 12:33N 36°08' W 005°11'1 0.6
2015-Mar-16 11:33N 36°08' W 005°12'1 0.6
2015-Mar-16 10:29N 36°07' W 005°12'0 0.2
2015-Mar-16 09:33N 36°07' W 005°12'5 4.5
2015-Mar-16 08:23N 36°10' W 005°17'1 0.8
2015-Mar-16 07:33N 36°10' W 005°17'4 3.8
2015-Mar-16 06:33N 36°06' W 005°18'5 4.6
2015-Mar-16 05:33N 36°04' W 005°22'6 5.5
2015-Mar-16 04:33N 35°59' W 005°25'10 7.9
2015-Mar-16 03:15N 35°55' W 005°37'166 8.3
2015-Mar-15 07:15N 36°30' W 008°59'71 7.7
2015-Mar-14 22:03N 37°30' W 009°46'15 9.4
2015-Mar-14 20:30N 37°44' W 009°50'9 9.4
2015-Mar-14 19:33N 37°53' W 009°52'9 9.3
2015-Mar-14 18:33N 38°02' W 009°55'9 9.3
2015-Mar-14 17:33N 38°11' W 009°58'14 9.4
2015-Mar-14 16:06N 38°25' W 010°01'5 9.4
2015-Mar-14 15:33N 38°30' W 010°03'10 9.3
2015-Mar-14 14:27N 38°39' W 010°06'  
Track history (hours):
 
Tides and Currents Weather Stations Pressure Air Temp Water Temp Dewpoint Dewpoint Depression Visibility Wind Speed Wind Dir Waves Ship Positions

Monte

Last reported at 2015-Mar-21 20:33 UTC. Time now 2015-Mar-27 10:18 UTC.
Position N 39°17' W 009°49'.

Length 104 m; draft 4 m.

Type: Cargo ship. MMSI: 305777000.

Date/timePositionNaut miles runAvg speedWind from/ knotsBaromVisibWave heightAir tempDewpointWater temp
2015-Mar-21 20:33N 39°17' W 009°49'9 8.5
2015-Mar-21 19:28N 39°08' W 009°49'8 8.0
2015-Mar-21 18:28N 38°60' W 009°49'2 0.6
2015-Mar-21 14:26N 38°58' W 009°51'6 5.8
2015-Mar-21 13:25N 38°52' W 009°51'7 8.2
2015-Mar-21 12:33N 38°45' W 009°51'8 7.5
2015-Mar-21 11:27N 38°37' W 009°49'7 7.9
2015-Mar-21 10:33N 38°30' W 009°47'8 8.0
2015-Mar-21 09:32N 38°22' W 009°45'8 8.2
2015-Mar-21 08:32N 38°14' W 009°43'9 8.5
2015-Mar-21 07:30N 38°05' W 009°40'8 9.0
2015-Mar-21 06:33N 37°57' W 009°37'9 9.0
2015-Mar-21 05:33N 37°48' W 009°35'9 9.4
2015-Mar-21 04:33N 37°39' W 009°32'69 8.5
2015-Mar-20 20:31N 36°40' W 008°49'9 9.7
2015-Mar-20 19:33N 36°37' W 008°38'151 9.4
2015-Mar-20 03:32N 35°58' W 005°37'7 7.5
2015-Mar-20 02:33N 36°00' W 005°28'8 7.7
2015-Mar-20 01:33N 36°07' W 005°24'4 2.8
2015-Mar-20 00:10N 36°11' W 005°25'0 0.0
2015-Mar-19 23:04N 36°11' W 005°25'0 0.0
2015-Mar-19 22:22N 36°11' W 005°25'0 0.0
2015-Mar-19 20:22N 36°11' W 005°25'0 0.0
2015-Mar-19 19:10N 36°11' W 005°25'0 0.0
2015-Mar-19 16:27N 36°11' W 005°25'0 0.0
2015-Mar-19 08:09N 36°11' W 005°25'0 0.0
2015-Mar-19 07:33N 36°11' W 005°25'0 0.0
2015-Mar-19 06:33N 36°11' W 005°25'0 0.0
2015-Mar-19 04:09N 36°11' W 005°25'0 0.0
2015-Mar-19 02:30N 36°11' W 005°25'0 0.0
2015-Mar-19 01:33N 36°11' W 005°25'0 0.0
2015-Mar-19 00:21N 36°11' W 005°25'0 0.0
2015-Mar-18 23:33N 36°11' W 005°25'0 0.0
2015-Mar-18 20:27N 36°11' W 005°25'1 0.0
2015-Mar-17 00:26N 36°10' W 005°26'0 0.1
2015-Mar-16 22:32N 36°10' W 005°25'0 0.0
2015-Mar-16 20:08N 36°10' W 005°25'0 0.0
2015-Mar-16 19:30N 36°10' W 005°25'0 0.0
2015-Mar-16 18:33N 36°10' W 005°25'1 1.3
2015-Mar-16 17:32N 36°09' W 005°25'5 5.1
2015-Mar-16 16:32N 36°06' W 005°20'9 8.0
2015-Mar-16 15:28N 36°10' W 005°10'0 0.4
2015-Mar-16 14:32N 36°09' W 005°11'1 0.6
2015-Mar-16 13:33N 36°09' W 005°11'1 0.7
2015-Mar-16 12:33N 36°08' W 005°11'1 0.6
2015-Mar-16 11:33N 36°08' W 005°12'1 0.6
2015-Mar-16 10:29N 36°07' W 005°12'0 0.2
2015-Mar-16 09:33N 36°07' W 005°12'5 4.5
2015-Mar-16 08:23N 36°10' W 005°17'1 0.8
2015-Mar-16 07:33N 36°10' W 005°17'4 3.8
2015-Mar-16 06:33N 36°06' W 005°18'5 4.6
2015-Mar-16 05:33N 36°04' W 005°22'6 5.5
2015-Mar-16 04:33N 35°59' W 005°25'10 7.9
2015-Mar-16 03:15N 35°55' W 005°37'166 8.3
2015-Mar-15 07:15N 36°30' W 008°59'71 7.7
2015-Mar-14 22:03N 37°30' W 009°46'15 9.4
2015-Mar-14 20:30N 37°44' W 009°50'9 9.4
2015-Mar-14 19:33N 37°53' W 009°52'9 9.3
2015-Mar-14 18:33N 38°02' W 009°55'9 9.3
2015-Mar-14 17:33N 38°11' W 009°58'14 9.4
2015-Mar-14 16:06N 38°25' W 010°01'5 9.4
2015-Mar-14 15:33N 38°30' W 010°03'10 9.3
2015-Mar-14 14:27N 38°39' W 010°06'  

Dump ship's entire track history